sensor_id;sensor_type;location;lat;lon;timestamp;pressure;altitude;pressure_sealevel;temperature;humidity
59650;BME280;46162;57.568;25.814;2022-08-19T00:01:54;101090.09;;;17.55;100.00
59650;BME280;46162;57.568;25.814;2022-08-19T00:04:26;101090.38;;;17.60;100.00
59650;BME280;46162;57.568;25.814;2022-08-19T00:06:56;101090.28;;;17.54;100.00
59650;BME280;46162;57.568;25.814;2022-08-19T00:09:27;101098.09;;;17.57;100.00
59650;BME280;46162;57.568;25.814;2022-08-19T00:11:57;101090.09;;;17.55;100.00
59650;BME280;46162;57.568;25.814;2022-08-19T00:14:27;101079.38;;;17.54;100.00
59650;BME280;46162;57.568;25.814;2022-08-19T00:16:59;101093.09;;;17.75;100.00
59650;BME280;46162;57.568;25.814;2022-08-19T00:19:30;101082.81;;;17.77;100.00
59650;BME280;46162;57.568;25.814;2022-08-19T00:21:59;101091.03;;;17.92;100.00
59650;BME280;46162;57.568;25.814;2022-08-19T00:24:28;101082.78;;;17.86;100.00
59650;BME280;46162;57.568;25.814;2022-08-19T00:26:58;101077.59;;;17.91;100.00
59650;BME280;46162;57.568;25.814;2022-08-19T00:29:48;101085.97;;;17.89;100.00
59650;BME280;46162;57.568;25.814;2022-08-19T00:32:19;101080.31;;;17.91;100.00
59650;BME280;46162;57.568;25.814;2022-08-19T00:34:47;101085.94;;;18.04;100.00
59650;BME280;46162;57.568;25.814;2022-08-19T00:37:16;101086.44;;;18.08;100.00
59650;BME280;46162;57.568;25.814;2022-08-19T00:39:45;101083.88;;;18.06;100.00
59650;BME280;46162;57.568;25.814;2022-08-19T00:42:17;101079.63;;;18.03;100.00
59650;BME280;46162;57.568;25.814;2022-08-19T00:44:46;101079.53;;;17.97;100.00
59650;BME280;46162;57.568;25.814;2022-08-19T00:47:16;101084.16;;;18.11;100.00
59650;BME280;46162;57.568;25.814;2022-08-19T00:49:47;101075.69;;;17.91;100.00
59650;BME280;46162;57.568;25.814;2022-08-19T00:52:21;101086.34;;;18.01;100.00
59650;BME280;46162;57.568;25.814;2022-08-19T00:54:51;101087.75;;;17.97;100.00
59650;BME280;46162;57.568;25.814;2022-08-19T00:57:25;101089.72;;;18.03;100.00
59650;BME280;46162;57.568;25.814;2022-08-19T00:59:57;101078.78;;;18.03;100.00
59650;BME280;46162;57.568;25.814;2022-08-19T01:02:31;101086.47;;;18.14;100.00
59650;BME280;46162;57.568;25.814;2022-08-19T01:05:01;101081.53;;;18.03;100.00
59650;BME280;46162;57.568;25.814;2022-08-19T01:07:30;101084.06;;;18.04;100.00
59650;BME280;46162;57.568;25.814;2022-08-19T01:10:06;101086.44;;;18.08;100.00
59650;BME280;46162;57.568;25.814;2022-08-19T01:12:37;101086.50;;;17.99;100.00
59650;BME280;46162;57.568;25.814;2022-08-19T01:15:06;101095.94;;;17.97;100.00
59650;BME280;46162;57.568;25.814;2022-08-19T01:17:36;101087.94;;;17.95;100.00
59650;BME280;46162;57.568;25.814;2022-08-19T01:20:07;101089.72;;;18.03;100.00
59650;BME280;46162;57.568;25.814;2022-08-19T01:22:43;101085.28;;;18.02;100.00
59650;BME280;46162;57.568;25.814;2022-08-19T01:25:13;101095.38;;;17.87;100.00
59650;BME280;46162;57.568;25.814;2022-08-19T01:27:45;101087.34;;;17.70;100.00
59650;BME280;46162;57.568;25.814;2022-08-19T01:30:19;101079.16;;;17.70;100.00
59650;BME280;46162;57.568;25.814;2022-08-19T01:32:49;101076.53;;;17.77;100.00
59650;BME280;46162;57.568;25.814;2022-08-19T01:35:19;101079.44;;;17.75;100.00
59650;BME280;46162;57.568;25.814;2022-08-19T01:37:51;101078.34;;;17.84;100.00
59650;BME280;46162;57.568;25.814;2022-08-19T01:40:22;101088.25;;;17.86;100.00
59650;BME280;46162;57.568;25.814;2022-08-19T01:42:52;101082.13;;;17.83;100.00
59650;BME280;46162;57.568;25.814;2022-08-19T01:45:23;101077.56;;;17.76;100.00
59650;BME280;46162;57.568;25.814;2022-08-19T01:47:52;101085.94;;;17.74;100.00
59650;BME280;46162;57.568;25.814;2022-08-19T01:50:29;101085.56;;;17.77;100.00
59650;BME280;46162;57.568;25.814;2022-08-19T01:53:01;101086.91;;;17.81;100.00
59650;BME280;46162;57.568;25.814;2022-08-19T01:55:36;101090.78;;;17.87;100.00
59650;BME280;46162;57.568;25.814;2022-08-19T01:58:09;101087.03;;;17.88;100.00
59650;BME280;46162;57.568;25.814;2022-08-19T02:00:39;101083.50;;;17.79;100.00
59650;BME280;46162;57.568;25.814;2022-08-19T02:03:08;101087.44;;;17.77;100.00
59650;BME280;46162;57.568;25.814;2022-08-19T02:05:39;101081.81;;;17.78;100.00
59650;BME280;46162;57.568;25.814;2022-08-19T02:08:09;101074.75;;;17.99;100.00
59650;BME280;46162;57.568;25.814;2022-08-19T02:10:40;101075.41;;;18.01;100.00
59650;BME280;46162;57.568;25.814;2022-08-19T02:13:10;101082.50;;;17.95;100.00
59650;BME280;46162;57.568;25.814;2022-08-19T02:15:40;101084.06;;;17.90;100.00
59650;BME280;46162;57.568;25.814;2022-08-19T02:18:09;101091.53;;;17.81;100.00
59650;BME280;46162;57.568;25.814;2022-08-19T02:20:38;101090.09;;;17.70;100.00
59650;BME280;46162;57.568;25.814;2022-08-19T02:23:10;101085.78;;;17.76;100.00
59650;BME280;46162;57.568;25.814;2022-08-19T02:25:43;101092.81;;;17.70;100.00
59650;BME280;46162;57.568;25.814;2022-08-19T02:28:13;101102.22;;;17.53;100.00
59650;BME280;46162;57.568;25.814;2022-08-19T02:30:45;101105.81;;;17.38;100.00
59650;BME280;46162;57.568;25.814;2022-08-19T02:33:14;101102.47;;;17.28;100.00
59650;BME280;46162;57.568;25.814;2022-08-19T02:35:44;101103.25;;;17.22;100.00
59650;BME280;46162;57.568;25.814;2022-08-19T02:38:14;101106.78;;;17.08;100.00
59650;BME280;46162;57.568;25.814;2022-08-19T02:40:57;101098.00;;;16.97;100.00
59650;BME280;46162;57.568;25.814;2022-08-19T02:43:27;101111.78;;;17.04;100.00
59650;BME280;46162;57.568;25.814;2022-08-19T02:46:01;101109.78;;;17.13;100.00
59650;BME280;46162;57.568;25.814;2022-08-19T02:48:30;101114.06;;;16.92;100.00
59650;BME280;46162;57.568;25.814;2022-08-19T02:51:00;101116.22;;;16.74;100.00
59650;BME280;46162;57.568;25.814;2022-08-19T02:53:30;101121.38;;;16.69;100.00
59650;BME280;46162;57.568;25.814;2022-08-19T02:55:58;101121.38;;;16.69;100.00
59650;BME280;46162;57.568;25.814;2022-08-19T02:58:27;101124.84;;;16.63;100.00
59650;BME280;46162;57.568;25.814;2022-08-19T03:00:56;101116.22;;;16.74;100.00
59650;BME280;46162;57.568;25.814;2022-08-19T03:03:25;101122.53;;;16.74;100.00
59650;BME280;46162;57.568;25.814;2022-08-19T03:06:04;101123.75;;;16.72;100.00
59650;BME280;46162;57.568;25.814;2022-08-19T03:08:36;101123.56;;;16.73;100.00
59650;BME280;46162;57.568;25.814;2022-08-19T03:11:05;101134.22;;;16.91;100.00
59650;BME280;46162;57.568;25.814;2022-08-19T03:13:34;101140.94;;;17.04;100.00
59650;BME280;46162;57.568;25.814;2022-08-19T03:16:04;101140.56;;;17.07;100.00
59650;BME280;46162;57.568;25.814;2022-08-19T03:18:33;101136.63;;;17.09;100.00
59650;BME280;46162;57.568;25.814;2022-08-19T03:21:02;101139.19;;;17.26;100.00
59650;BME280;46162;57.568;25.814;2022-08-19T03:23:31;101142.78;;;17.26;100.00
59650;BME280;46162;57.568;25.814;2022-08-19T03:26:03;101148.22;;;17.26;100.00
59650;BME280;46162;57.568;25.814;2022-08-19T03:28:43;101144.94;;;17.46;100.00
59650;BME280;46162;57.568;25.814;2022-08-19T03:31:25;101150.06;;;17.49;100.00
59650;BME280;46162;57.568;25.814;2022-08-19T03:34:18;101154.31;;;17.66;100.00
59650;BME280;46162;57.568;25.814;2022-08-19T03:36:47;101146.84;;;17.60;100.00
59650;BME280;46162;57.568;25.814;2022-08-19T03:39:16;101150.38;;;17.69;100.00
59650;BME280;46162;57.568;25.814;2022-08-19T03:41:48;101150.84;;;17.87;100.00
59650;BME280;46162;57.568;25.814;2022-08-19T03:44:37;101160.47;;;17.98;100.00
59650;BME280;46162;57.568;25.814;2022-08-19T03:47:06;101160.38;;;18.06;100.00
59650;BME280;46162;57.568;25.814;2022-08-19T03:49:35;101154.06;;;18.20;100.00
59650;BME280;46162;57.568;25.814;2022-08-19T03:52:04;101164.22;;;18.26;100.00
59650;BME280;46162;57.568;25.814;2022-08-19T03:54:34;101167.72;;;18.20;100.00
59650;BME280;46162;57.568;25.814;2022-08-19T03:57:05;101167.16;;;18.25;100.00
59650;BME280;46162;57.568;25.814;2022-08-19T03:59:35;101179.91;;;18.39;100.00
59650;BME280;46162;57.568;25.814;2022-08-19T04:02:07;101179.28;;;18.37;100.00
59650;BME280;46162;57.568;25.814;2022-08-19T04:04:37;101172.59;;;18.40;100.00
59650;BME280;46162;57.568;25.814;2022-08-19T04:07:06;101185.06;;;18.64;100.00
59650;BME280;46162;57.568;25.814;2022-08-19T04:09:36;101180.81;;;18.61;100.00
59650;BME280;46162;57.568;25.814;2022-08-19T04:12:07;101176.53;;;18.52;100.00
59650;BME280;46162;57.568;25.814;2022-08-19T04:14:36;101189.31;;;18.52;100.00
59650;BME280;46162;57.568;25.814;2022-08-19T04:17:04;101188.50;;;18.51;100.00
59650;BME280;46162;57.568;25.814;2022-08-19T04:19:35;101182.53;;;18.62;100.00
59650;BME280;46162;57.568;25.814;2022-08-19T04:22:04;101188.28;;;18.67;100.00
59650;BME280;46162;57.568;25.814;2022-08-19T04:24:34;101190.66;;;18.92;100.00
59650;BME280;46162;57.568;25.814;2022-08-19T04:27:04;101187.00;;;18.85;100.00
59650;BME280;46162;57.568;25.814;2022-08-19T04:29:34;101194.16;;;18.86;100.00
59650;BME280;46162;57.568;25.814;2022-08-19T04:32:06;101194.50;;;18.98;100.00
59650;BME280;46162;57.568;25.814;2022-08-19T04:34:36;101196.81;;;18.94;100.00
59650;BME280;46162;57.568;25.814;2022-08-19T04:37:26;101191.06;;;19.10;100.00
59650;BME280;46162;57.568;25.814;2022-08-19T04:40:04;101197.19;;;19.12;100.00
59650;BME280;46162;57.568;25.814;2022-08-19T04:42:50;101196.38;;;19.19;100.00
59650;BME280;46162;57.568;25.814;2022-08-19T04:45:22;101202.16;;;19.24;100.00
59650;BME280;46162;57.568;25.814;2022-08-19T04:47:54;101196.78;;;19.16;100.00
59650;BME280;46162;57.568;25.814;2022-08-19T04:50:44;101205.25;;;19.21;100.00
59650;BME280;46162;57.568;25.814;2022-08-19T04:53:13;101204.59;;;19.19;100.00
59650;BME280;46162;57.568;25.814;2022-08-19T04:55:41;101205.25;;;19.21;100.00
59650;BME280;46162;57.568;25.814;2022-08-19T04:58:10;101213.09;;;19.24;100.00
59650;BME280;46162;57.568;25.814;2022-08-19T05:00:40;101208.13;;;19.34;100.00
59650;BME280;46162;57.568;25.814;2022-08-19T05:03:09;101211.91;;;19.33;100.00
59650;BME280;46162;57.568;25.814;2022-08-19T05:05:39;101206.94;;;19.43;100.00
59650;BME280;46162;57.568;25.814;2022-08-19T05:08:11;101217.50;;;19.46;100.00
59650;BME280;46162;57.568;25.814;2022-08-19T05:10:41;101216.59;;;19.39;100.00
59650;BME280;46162;57.568;25.814;2022-08-19T05:13:10;101218.28;;;19.40;100.00
59650;BME280;46162;57.568;25.814;2022-08-19T05:15:40;101224.50;;;19.55;100.00
59650;BME280;46162;57.568;25.814;2022-08-19T05:18:09;101222.09;;;19.46;100.00
59650;BME280;46162;57.568;25.814;2022-08-19T05:20:55;101229.66;;;19.65;100.00
59650;BME280;46162;57.568;25.814;2022-08-19T05:23:41;101230.25;;;19.82;100.00
59650;BME280;46162;57.568;25.814;2022-08-19T05:26:11;101234.03;;;19.81;100.00
59650;BME280;46162;57.568;25.814;2022-08-19T05:28:40;101228.22;;;19.97;100.00
59650;BME280;46162;57.568;25.814;2022-08-19T05:31:10;101236.78;;;20.16;100.00
59650;BME280;46162;57.568;25.814;2022-08-19T05:33:39;101221.00;;;20.18;100.00
59650;BME280;46162;57.568;25.814;2022-08-19T05:36:08;101225.06;;;20.29;100.00
59650;BME280;46162;57.568;25.814;2022-08-19T05:38:37;101221.09;;;20.45;100.00
59650;BME280;46162;57.568;25.814;2022-08-19T05:41:07;101218.47;;;20.58;100.00
59650;BME280;46162;57.568;25.814;2022-08-19T05:43:36;101224.16;;;20.56;100.00
59650;BME280;46162;57.568;25.814;2022-08-19T05:46:06;101228.88;;;20.76;100.00
59650;BME280;46162;57.568;25.814;2022-08-19T05:48:36;101227.63;;;20.92;100.00
59650;BME280;46162;57.568;25.814;2022-08-19T05:51:05;101226.41;;;21.01;100.00
59650;BME280;46162;57.568;25.814;2022-08-19T05:53:35;101230.22;;;21.07;100.00
59650;BME280;46162;57.568;25.814;2022-08-19T05:56:04;101231.31;;;21.12;100.00
59650;BME280;46162;57.568;25.814;2022-08-19T05:58:34;101232.56;;;21.23;100.00
59650;BME280;46162;57.568;25.814;2022-08-19T06:01:03;101227.09;;;21.23;100.00
59650;BME280;46162;57.568;25.814;2022-08-19T06:03:33;101234.50;;;21.29;100.00
59650;BME280;46162;57.568;25.814;2022-08-19T06:06:03;101238.72;;;21.32;100.00
59650;BME280;46162;57.568;25.814;2022-08-19T06:08:33;101228.78;;;21.37;100.00
59650;BME280;46162;57.568;25.814;2022-08-19T06:11:17;101246.78;;;21.40;100.00
59650;BME280;46162;57.568;25.814;2022-08-19T06:13:47;101249.97;;;21.50;100.00
59650;BME280;46162;57.568;25.814;2022-08-19T06:16:26;101246.81;;;21.66;100.00
59650;BME280;46162;57.568;25.814;2022-08-19T06:18:56;101244.69;;;21.62;100.00
59650;BME280;46162;57.568;25.814;2022-08-19T06:21:27;101247.66;;;21.67;100.00
59650;BME280;46162;57.568;25.814;2022-08-19T06:23:58;101250.41;;;21.67;100.00
59650;BME280;46162;57.568;25.814;2022-08-19T06:26:27;101253.97;;;21.67;100.00
59650;BME280;46162;57.568;25.814;2022-08-19T06:28:55;101252.72;;;21.77;100.00
59650;BME280;46162;57.568;25.814;2022-08-19T06:31:27;101252.25;;;21.93;100.00
59650;BME280;46162;57.568;25.814;2022-08-19T06:34:00;101258.41;;;22.02;100.00
59650;BME280;46162;57.568;25.814;2022-08-19T06:36:33;101253.09;;;22.14;100.00
59650;BME280;46162;57.568;25.814;2022-08-19T06:39:05;101254.13;;;22.12;100.00
59650;BME280;46162;57.568;25.814;2022-08-19T06:41:34;101256.50;;;21.96;100.00
59650;BME280;46162;57.568;25.814;2022-08-19T06:44:16;101256.03;;;22.25;100.00
59650;BME280;46162;57.568;25.814;2022-08-19T06:46:46;101260.63;;;22.51;100.00
59650;BME280;46162;57.568;25.814;2022-08-19T06:49:21;101255.03;;;22.78;100.00
59650;BME280;46162;57.568;25.814;2022-08-19T06:51:51;101264.28;;;22.90;100.00
59650;BME280;46162;57.568;25.814;2022-08-19T06:54:20;101264.88;;;23.06;100.00
59650;BME280;46162;57.568;25.814;2022-08-19T06:56:57;101262.91;;;23.13;100.00
59650;BME280;46162;57.568;25.814;2022-08-19T06:59:30;101261.94;;;23.32;100.00
59650;BME280;46162;57.568;25.814;2022-08-19T07:02:02;101266.22;;;23.28;100.00
59650;BME280;46162;57.568;25.814;2022-08-19T07:04:34;101260.34;;;23.50;100.00
59650;BME280;46162;57.568;25.814;2022-08-19T07:07:08;101264.59;;;23.46;100.00
59650;BME280;46162;57.568;25.814;2022-08-19T07:09:49;101268.66;;;23.68;100.00
59650;BME280;46162;57.568;25.814;2022-08-19T07:12:28;101269.50;;;23.75;100.00
59650;BME280;46162;57.568;25.814;2022-08-19T07:14:58;101280.63;;;23.87;100.00
59650;BME280;46162;57.568;25.814;2022-08-19T07:17:27;101272.00;;;24.02;100.00
59650;BME280;46162;57.568;25.814;2022-08-19T07:19:56;101267.63;;;23.94;100.00
59650;BME280;46162;57.568;25.814;2022-08-19T07:22:37;101275.81;;;24.01;100.00
59650;BME280;46162;57.568;25.814;2022-08-19T07:25:07;101261.50;;;24.11;100.00
59650;BME280;46162;57.568;25.814;2022-08-19T07:27:36;101263.44;;;24.10;100.00
59650;BME280;46162;57.568;25.814;2022-08-19T07:30:07;101258.53;;;24.12;100.00
59650;BME280;46162;57.568;25.814;2022-08-19T07:32:38;101258.31;;;24.32;100.00
59650;BME280;46162;57.568;25.814;2022-08-19T07:35:07;101266.22;;;24.29;100.00
59650;BME280;46162;57.568;25.814;2022-08-19T07:37:40;101265.91;;;24.37;100.00
59650;BME280;46162;57.568;25.814;2022-08-19T07:40:12;101259.09;;;24.39;100.00
59650;BME280;46162;57.568;25.814;2022-08-19T07:42:41;101266.84;;;24.67;100.00
59650;BME280;46162;57.568;25.814;2022-08-19T07:45:10;101264.19;;;24.61;100.00
59650;BME280;46162;57.568;25.814;2022-08-19T07:47:39;101275.59;;;24.64;100.00
59650;BME280;46162;57.568;25.814;2022-08-19T07:50:19;101269.31;;;24.76;100.00
59650;BME280;46162;57.568;25.814;2022-08-19T07:52:49;101271.94;;;24.71;100.00
59650;BME280;46162;57.568;25.814;2022-08-19T07:55:21;101274.16;;;24.62;100.00
59650;BME280;46162;57.568;25.814;2022-08-19T07:58:11;101274.16;;;24.62;100.00
59650;BME280;46162;57.568;25.814;2022-08-19T08:00:40;101275.13;;;24.86;100.00
59650;BME280;46162;57.568;25.814;2022-08-19T08:03:09;101275.19;;;24.98;100.00
59650;BME280;46162;57.568;25.814;2022-08-19T08:05:37;101275.34;;;25.15;100.00
59650;BME280;46162;57.568;25.814;2022-08-19T08:08:25;101275.84;;;25.11;100.00
59650;BME280;46162;57.568;25.814;2022-08-19T08:11:15;101265.09;;;25.22;100.00
59650;BME280;46162;57.568;25.814;2022-08-19T08:13:47;101277.41;;;25.07;100.00
59650;BME280;46162;57.568;25.814;2022-08-19T08:16:33;101268.97;;;25.33;100.00
59650;BME280;46162;57.568;25.814;2022-08-19T08:19:14;101280.25;;;25.31;100.00
59650;BME280;46162;57.568;25.814;2022-08-19T08:21:52;101278.50;;;25.48;100.00
59650;BME280;46162;57.568;25.814;2022-08-19T08:24:22;101279.34;;;25.37;100.00
59650;BME280;46162;57.568;25.814;2022-08-19T08:26:55;101274.88;;;25.36;100.00
59650;BME280;46162;57.568;25.814;2022-08-19T08:29:25;101284.19;;;25.23;100.00
59650;BME280;46162;57.568;25.814;2022-08-19T08:32:01;101287.38;;;25.39;100.00
59650;BME280;46162;57.568;25.814;2022-08-19T08:34:41;101282.81;;;25.33;100.00
59650;BME280;46162;57.568;25.814;2022-08-19T08:37:09;101284.56;;;25.27;100.00
59650;BME280;46162;57.568;25.814;2022-08-19T08:39:43;101285.19;;;25.29;100.00
59650;BME280;46162;57.568;25.814;2022-08-19T08:42:20;101289.91;;;25.40;100.00
59650;BME280;46162;57.568;25.814;2022-08-19T08:44:58;101286.72;;;25.55;100.00
59650;BME280;46162;57.568;25.814;2022-08-19T08:47:30;101288.63;;;25.66;100.00
59650;BME280;46162;57.568;25.814;2022-08-19T08:50:04;101294.13;;;25.43;100.00
59650;BME280;46162;57.568;25.814;2022-08-19T08:52:36;101300.91;;;25.70;100.00
59650;BME280;46162;57.568;25.814;2022-08-19T08:55:15;101292.41;;;25.72;100.00
59650;BME280;46162;57.568;25.814;2022-08-19T08:57:51;101285.34;;;25.88;100.00
59650;BME280;46162;57.568;25.814;2022-08-19T09:00:25;101287.41;;;25.92;100.00
59650;BME280;46162;57.568;25.814;2022-08-19T09:02:55;101294.59;;;25.93;100.00
59650;BME280;46162;57.568;25.814;2022-08-19T09:05:25;101291.50;;;26.02;100.00
59650;BME280;46162;57.568;25.814;2022-08-19T09:08:20;101300.84;;;26.01;100.00
59650;BME280;46162;57.568;25.814;2022-08-19T09:10:55;101290.03;;;26.11;100.00
59650;BME280;46162;57.568;25.814;2022-08-19T09:13:31;101294.63;;;26.17;100.00
59650;BME280;46162;57.568;25.814;2022-08-19T09:16:06;101300.50;;;26.21;100.00
59650;BME280;46162;57.568;25.814;2022-08-19T09:18:40;101299.53;;;26.38;87.77
59650;BME280;46162;57.568;25.814;2022-08-19T09:21:09;101296.41;;;26.35;100.00
59650;BME280;46162;57.568;25.814;2022-08-19T09:23:38;101294.59;;;26.41;98.65
59650;BME280;46162;57.568;25.814;2022-08-19T09:26:10;101301.66;;;26.48;89.48
59650;BME280;46162;57.568;25.814;2022-08-19T09:28:43;101298.31;;;26.58;97.36
59650;BME280;46162;57.568;25.814;2022-08-19T09:31:17;101300.50;;;26.44;97.33
59650;BME280;46162;57.568;25.814;2022-08-19T09:33:46;101297.38;;;26.64;98.59
59650;BME280;46162;57.568;25.814;2022-08-19T09:36:20;101296.63;;;26.69;100.00
59650;BME280;46162;57.568;25.814;2022-08-19T09:39:00;101295.41;;;26.76;100.00
59650;BME280;46162;57.568;25.814;2022-08-19T09:41:30;101301.38;;;26.85;100.00
59650;BME280;46162;57.568;25.814;2022-08-19T09:43:59;101295.50;;;27.22;88.61
59650;BME280;46162;57.568;25.814;2022-08-19T09:46:29;101291.16;;;27.26;96.57
59650;BME280;46162;57.568;25.814;2022-08-19T09:48:59;101294.63;;;27.33;96.52
59650;BME280;46162;57.568;25.814;2022-08-19T09:51:33;101286.44;;;27.27;96.49
59650;BME280;46162;57.568;25.814;2022-08-19T09:54:03;101285.09;;;27.29;100.00
59650;BME280;46162;57.568;25.814;2022-08-19T09:56:38;101296.94;;;27.24;98.37
59650;BME280;46162;57.568;25.814;2022-08-19T09:59:08;101280.09;;;27.43;97.68
59650;BME280;46162;57.568;25.814;2022-08-19T10:01:39;101285.47;;;27.50;100.00
59650;BME280;46162;57.568;25.814;2022-08-19T10:04:09;101286.81;;;27.47;96.63
59650;BME280;46162;57.568;25.814;2022-08-19T10:06:47;101290.56;;;27.70;91.11
59650;BME280;46162;57.568;25.814;2022-08-19T10:09:20;101301.97;;;27.73;91.42
59650;BME280;46162;57.568;25.814;2022-08-19T10:12:03;101285.28;;;27.85;74.41
59650;BME280;46162;57.568;25.814;2022-08-19T10:14:37;101289.72;;;27.86;85.03
59650;BME280;46162;57.568;25.814;2022-08-19T10:17:05;101283.47;;;27.79;90.29
59650;BME280;46162;57.568;25.814;2022-08-19T10:19:46;101286.78;;;27.93;86.61
59650;BME280;46162;57.568;25.814;2022-08-19T10:22:22;101276.09;;;27.67;93.46
59650;BME280;46162;57.568;25.814;2022-08-19T10:24:52;101281.16;;;27.87;93.11
59650;BME280;46162;57.568;25.814;2022-08-19T10:27:22;101281.56;;;27.96;84.92
59650;BME280;46162;57.568;25.814;2022-08-19T10:29:52;101266.34;;;27.99;90.70
59650;BME280;46162;57.568;25.814;2022-08-19T10:32:21;101273.50;;;28.12;88.12
59650;BME280;46162;57.568;25.814;2022-08-19T10:35:00;101272.31;;;28.07;84.98
59650;BME280;46162;57.568;25.814;2022-08-19T10:37:32;101276.44;;;28.05;89.80
59650;BME280;46162;57.568;25.814;2022-08-19T10:40:02;101261.34;;;28.18;97.06
59650;BME280;46162;57.568;25.814;2022-08-19T10:42:33;101269.13;;;28.38;85.77
59650;BME280;46162;57.568;25.814;2022-08-19T10:45:01;101269.97;;;28.38;82.68
59650;BME280;46162;57.568;25.814;2022-08-19T10:47:30;101266.78;;;28.46;88.64
59650;BME280;46162;57.568;25.814;2022-08-19T10:49:59;101269.97;;;28.38;93.54
59650;BME280;46162;57.568;25.814;2022-08-19T10:52:47;101270.78;;;28.56;78.22
59650;BME280;46162;57.568;25.814;2022-08-19T10:55:19;101273.13;;;28.64;86.91
59650;BME280;46162;57.568;25.814;2022-08-19T10:58:11;101273.78;;;28.71;87.22
59650;BME280;46162;57.568;25.814;2022-08-19T11:00:42;101263.03;;;28.58;80.03
59650;BME280;46162;57.568;25.814;2022-08-19T11:03:11;101265.34;;;28.88;76.58
59650;BME280;46162;57.568;25.814;2022-08-19T11:05:40;101263.16;;;28.68;73.27
59650;BME280;46162;57.568;25.814;2022-08-19T11:08:09;101262.00;;;28.64;79.37
59650;BME280;46162;57.568;25.814;2022-08-19T11:10:51;101253.78;;;28.52;88.42
59650;BME280;46162;57.568;25.814;2022-08-19T11:13:22;101251.91;;;28.58;76.66
59650;BME280;46162;57.568;25.814;2022-08-19T11:15:59;101265.22;;;28.56;79.40
59650;BME280;46162;57.568;25.814;2022-08-19T11:18:35;101250.38;;;28.45;85.46
59650;BME280;46162;57.568;25.814;2022-08-19T11:21:08;101246.38;;;28.41;79.18
59650;BME280;46162;57.568;25.814;2022-08-19T11:23:39;101246.25;;;28.30;78.35
59650;BME280;46162;57.568;25.814;2022-08-19T11:26:08;101232.66;;;28.29;80.11
59650;BME280;46162;57.568;25.814;2022-08-19T11:28:38;101232.44;;;28.36;75.67
59650;BME280;46162;57.568;25.814;2022-08-19T11:31:10;101233.47;;;28.46;75.67
59650;BME280;46162;57.568;25.814;2022-08-19T11:33:39;101240.00;;;28.40;84.58
59650;BME280;46162;57.568;25.814;2022-08-19T11:36:14;101226.31;;;28.56;74.43
59650;BME280;46162;57.568;25.814;2022-08-19T11:38:43;101224.84;;;28.48;81.75
59650;BME280;46162;57.568;25.814;2022-08-19T11:41:16;101233.53;;;28.51;72.40
59650;BME280;46162;57.568;25.814;2022-08-19T11:43:47;101228.88;;;28.40;71.40
59650;BME280;46162;57.568;25.814;2022-08-19T11:46:16;101229.56;;;28.47;80.00
59650;BME280;46162;57.568;25.814;2022-08-19T11:48:45;101218.78;;;28.51;77.79
59650;BME280;46162;57.568;25.814;2022-08-19T11:51:17;101224.44;;;28.39;79.88
59650;BME280;46162;57.568;25.814;2022-08-19T11:53:47;101227.38;;;28.11;91.29
59650;BME280;46162;57.568;25.814;2022-08-19T11:56:17;101230.63;;;28.24;87.18
59650;BME280;46162;57.568;25.814;2022-08-19T11:58:48;101219.56;;;28.07;80.23
59650;BME280;46162;57.568;25.814;2022-08-19T12:01:19;101224.31;;;27.90;95.84
59650;BME280;46162;57.568;25.814;2022-08-19T12:03:50;101221.94;;;27.99;90.42
59650;BME280;46162;57.568;25.814;2022-08-19T12:06:22;101229.47;;;28.20;82.14
59650;BME280;46162;57.568;25.814;2022-08-19T12:08:55;101219.81;;;28.06;81.69
59650;BME280;46162;57.568;25.814;2022-08-19T12:11:24;101218.41;;;27.86;91.95
59650;BME280;46162;57.568;25.814;2022-08-19T12:13:56;101221.75;;;28.05;88.93
59650;BME280;46162;57.568;25.814;2022-08-19T12:16:27;101223.28;;;27.96;75.01
59650;BME280;46162;57.568;25.814;2022-08-19T12:18:56;101226.31;;;27.95;79.20
59650;BME280;46162;57.568;25.814;2022-08-19T12:21:27;101220.94;;;27.71;81.00
59650;BME280;46162;57.568;25.814;2022-08-19T12:23:56;101210.19;;;27.75;79.73
59650;BME280;46162;57.568;25.814;2022-08-19T12:26:26;101218.44;;;27.70;76.91
59650;BME280;46162;57.568;25.814;2022-08-19T12:28:57;101208.69;;;27.67;73.76
59650;BME280;46162;57.568;25.814;2022-08-19T12:31:27;101217.56;;;27.69;81.52
59650;BME280;46162;57.568;25.814;2022-08-19T12:33:56;101217.47;;;27.64;77.73
59650;BME280;46162;57.568;25.814;2022-08-19T12:36:25;101209.28;;;27.52;77.72
59650;BME280;46162;57.568;25.814;2022-08-19T12:38:54;101216.66;;;27.63;73.19
59650;BME280;46162;57.568;25.814;2022-08-19T12:41:23;101206.38;;;27.64;75.25
59650;BME280;46162;57.568;25.814;2022-08-19T12:43:52;101198.41;;;27.67;74.85
59650;BME280;46162;57.568;25.814;2022-08-19T12:46:22;101203.06;;;27.45;83.38
59650;BME280;46162;57.568;25.814;2022-08-19T12:48:52;101209.00;;;27.54;79.22
59650;BME280;46162;57.568;25.814;2022-08-19T12:51:22;101200.59;;;27.32;80.25
59650;BME280;46162;57.568;25.814;2022-08-19T12:53:51;101195.66;;;27.51;72.92
59650;BME280;46162;57.568;25.814;2022-08-19T12:56:20;101197.00;;;27.48;79.69
59650;BME280;46162;57.568;25.814;2022-08-19T12:58:49;101191.16;;;27.50;78.22